createdAt,value
2017-04-25T00:00:39.236Z,0.00
2017-04-25T00:01:32.777Z,0.00
2017-04-25T00:02:21.712Z,0.00
2017-04-25T00:03:15.282Z,0.00
2017-04-25T00:04:09.222Z,0.00
2017-04-25T00:05:03.195Z,0.00
2017-04-25T00:05:57.144Z,0.00
2017-04-25T00:06:52.076Z,0.00
2017-04-25T00:07:45.612Z,0.00
2017-04-25T00:08:35.953Z,0.00
2017-04-25T00:09:28.046Z,0.00
2017-04-25T00:10:22.038Z,0.00
2017-04-25T00:11:16.083Z,0.00
2017-04-25T00:12:10.137Z,0.00
2017-04-25T00:12:57.908Z,0.00
2017-04-25T00:13:51.830Z,0.00
2017-04-25T00:14:45.840Z,0.00
2017-04-25T00:15:34.892Z,0.00
2017-04-25T00:16:28.248Z,0.00
2017-04-25T00:17:17.230Z,0.00
2017-04-25T00:18:11.781Z,0.00
2017-04-25T00:19:06.228Z,0.00
2017-04-25T00:19:59.790Z,0.00
2017-04-25T00:20:48.745Z,0.00
2017-04-25T00:21:37.302Z,0.00
2017-04-25T00:22:31.746Z,0.00
2017-04-25T00:23:25.285Z,0.00
2017-04-25T00:24:13.642Z,0.00
2017-04-25T00:25:08.199Z,0.00
2017-04-25T00:26:02.728Z,0.00
2017-04-25T00:26:50.252Z,0.00
2017-04-25T00:27:39.208Z,0.00
2017-04-25T00:28:33.745Z,0.00
2017-04-25T00:29:22.267Z,0.00
2017-04-25T00:30:15.735Z,0.00
2017-04-25T00:31:03.685Z,0.00
2017-04-25T00:31:51.693Z,0.00
2017-04-25T00:32:34.633Z,0.00
2017-04-25T00:33:29.131Z,0.00
2017-04-25T00:34:23.632Z,0.00
2017-04-25T00:35:23.165Z,0.00
2017-04-25T00:36:17.109Z,0.00
2017-04-25T00:37:06.048Z,0.00
2017-04-25T00:38:00.594Z,0.00
2017-04-25T00:38:49.151Z,0.00
2017-04-25T00:39:38.190Z,0.00
2017-04-25T00:40:31.226Z,0.00
2017-04-25T00:41:31.122Z,0.00
2017-04-25T00:42:19.171Z,0.00
2017-04-25T00:43:20.000Z,0.00
2017-04-25T00:44:08.521Z,0.00
2017-04-25T00:45:02.051Z,0.00
2017-04-25T00:46:01.963Z,0.00
2017-04-25T00:46:55.941Z,0.00
2017-04-25T00:47:50.925Z,0.00
2017-04-25T00:48:46.053Z,0.00
2017-04-25T00:49:39.911Z,0.00
2017-04-25T00:50:39.402Z,0.00
2017-04-25T00:51:27.374Z,0.00
2017-04-25T00:52:15.341Z,0.00
2017-04-25T00:53:03.308Z,0.00
2017-04-25T00:53:58.279Z,0.00
2017-04-25T00:54:51.761Z,0.00
2017-04-25T00:55:39.784Z,0.00
2017-04-25T00:56:27.666Z,0.00
2017-04-25T00:57:15.641Z,0.00
2017-04-25T00:58:04.638Z,0.00
2017-04-25T00:58:52.100Z,0.00
2017-04-25T00:59:41.023Z,0.00
2017-04-25T01:00:35.569Z,0.00
2017-04-25T01:01:30.094Z,0.00
2017-04-25T01:02:18.584Z,0.00
2017-04-25T01:03:07.109Z,0.00
2017-04-25T01:04:01.627Z,0.00
2017-04-25T01:04:56.111Z,0.00
2017-04-25T01:05:43.714Z,0.00
2017-04-25T01:06:26.656Z,0.00
2017-04-25T01:07:21.181Z,0.00
2017-04-25T01:08:15.731Z,0.00
2017-04-25T01:09:10.199Z,0.00
2017-04-25T01:10:03.721Z,0.00
2017-04-25T01:10:58.627Z,0.00
2017-04-25T01:11:47.641Z,0.00
2017-04-25T01:12:35.833Z,0.00
2017-04-25T01:13:23.243Z,0.00
2017-04-25T01:14:18.166Z,0.00
2017-04-25T01:15:05.700Z,0.00
2017-04-25T01:15:59.669Z,0.00
2017-04-25T01:16:54.564Z,0.00
2017-04-25T01:17:48.177Z,0.00
2017-04-25T01:18:43.037Z,0.00
2017-04-25T01:19:36.568Z,0.00
2017-04-25T01:20:30.526Z,0.00
2017-04-25T01:21:25.515Z,0.00
2017-04-25T01:22:19.962Z,0.00
2017-04-25T01:23:19.522Z,0.00
2017-04-25T01:24:13.514Z,0.00
2017-04-25T01:24:56.418Z,0.00
2017-04-25T01:25:50.939Z,0.00
2017-04-25T01:26:44.402Z,0.00
2017-04-25T01:27:39.384Z,0.00
2017-04-25T01:28:45.556Z,0.00
2017-04-25T01:29:39.884Z,0.00
2017-04-25T01:30:28.399Z,0.00
2017-04-25T01:31:16.910Z,0.00
2017-04-25T01:32:11.060Z,0.00
2017-04-25T01:32:59.979Z,0.00
2017-04-25T01:33:46.923Z,0.00
2017-04-25T01:34:35.848Z,0.00
2017-04-25T01:35:23.431Z,0.00
2017-04-25T01:36:11.395Z,0.00
2017-04-25T01:36:59.271Z,0.00
2017-04-25T01:37:48.245Z,0.00
2017-04-25T01:38:42.812Z,0.00
2017-04-25T01:39:36.323Z,0.00
2017-04-25T01:40:25.216Z,0.00
2017-04-25T01:41:12.732Z,0.00
2017-04-25T01:42:00.680Z,0.00
2017-04-25T01:42:48.760Z,0.00
2017-04-25T01:43:37.663Z,0.00
2017-04-25T01:44:25.154Z,0.00
2017-04-25T01:45:13.180Z,0.00
2017-04-25T01:46:13.028Z,0.00
2017-04-25T01:47:07.981Z,0.00
2017-04-25T01:48:02.104Z,0.00
2017-04-25T01:48:49.471Z,0.00
2017-04-25T01:49:32.439Z,0.00
2017-04-25T01:50:25.949Z,0.00
2017-04-25T01:51:20.879Z,0.00
2017-04-25T01:52:14.385Z,0.00
2017-04-25T01:53:02.311Z,0.00
2017-04-25T01:53:57.334Z,0.00
2017-04-25T01:54:51.816Z,0.00
2017-04-25T01:55:46.335Z,0.00
2017-04-25T01:56:40.973Z,0.00
2017-04-25T01:57:40.379Z,0.00
2017-04-25T01:58:35.362Z,0.00
2017-04-25T01:59:34.843Z,0.00
2017-04-25T02:00:23.775Z,0.00
2017-04-25T02:01:11.356Z,0.00
2017-04-25T02:01:59.284Z,0.00
2017-04-25T02:02:42.237Z,0.00
2017-04-25T02:03:35.779Z,0.00
2017-04-25T02:04:18.736Z,0.00
2017-04-25T02:05:07.214Z,0.00
2017-04-25T02:06:00.704Z,0.00
2017-04-25T02:06:49.669Z,0.00
2017-04-25T02:07:37.230Z,0.00
2017-04-25T02:08:26.185Z,0.00
2017-04-25T02:09:13.666Z,0.00
2017-04-25T02:10:13.597Z,0.00
2017-04-25T02:11:07.596Z,0.00
2017-04-25T02:12:01.543Z,0.00
2017-04-25T02:12:55.452Z,0.00
2017-04-25T02:13:44.457Z,0.00
2017-04-25T02:14:37.913Z,0.00
2017-04-25T02:15:37.913Z,0.00
2017-04-25T02:16:31.841Z,0.00
2017-04-25T02:17:32.805Z,0.00
2017-04-25T02:18:32.336Z,0.00
2017-04-25T02:19:27.239Z,0.00
2017-04-25T02:20:26.844Z,0.00
2017-04-25T02:21:20.751Z,0.00
2017-04-25T02:22:15.720Z,0.00
2017-04-25T02:23:09.285Z,0.00
2017-04-25T02:23:58.236Z,0.00
2017-04-25T02:24:51.621Z,0.00
2017-04-25T02:25:45.655Z,0.00
2017-04-25T02:26:33.593Z,0.00
2017-04-25T02:27:21.575Z,0.00
2017-04-25T02:28:15.479Z,0.00
2017-04-25T02:29:15.424Z,0.00
2017-04-25T02:30:09.410Z,0.00
2017-04-25T02:31:04.321Z,0.00
2017-04-25T02:32:03.870Z,0.00
2017-04-25T02:33:03.797Z,0.00
2017-04-25T02:33:58.779Z,0.00
2017-04-25T02:34:53.250Z,0.00
2017-04-25T02:35:47.770Z,0.00
2017-04-25T02:36:47.917Z,0.00
2017-04-25T02:37:42.246Z,0.00
2017-04-25T02:38:41.773Z,0.00
2017-04-25T02:39:41.761Z,0.00
2017-04-25T02:40:35.648Z,0.00
2017-04-25T02:41:29.652Z,0.00
2017-04-25T02:42:23.547Z,0.00
2017-04-25T02:43:12.577Z,0.00
2017-04-25T02:44:00.998Z,0.00
2017-04-25T02:44:55.528Z,0.00
2017-04-25T02:45:44.037Z,0.00
2017-04-25T02:46:38.529Z,0.00
2017-04-25T02:47:33.112Z,0.00
2017-04-25T02:48:32.595Z,0.00
2017-04-25T02:49:32.648Z,0.00
2017-04-25T02:50:26.540Z,0.00
2017-04-25T02:51:20.495Z,0.00
2017-04-25T02:52:20.360Z,0.00
2017-04-25T02:53:14.350Z,0.00
2017-04-25T02:54:14.302Z,0.00
2017-04-25T02:55:08.272Z,0.00
2017-04-25T02:56:08.216Z,0.00
2017-04-25T02:56:57.120Z,0.00
2017-04-25T02:57:45.679Z,0.00
2017-04-25T02:58:34.188Z,0.00
2017-04-25T02:59:27.668Z,0.00
2017-04-25T03:00:16.615Z,0.00
2017-04-25T03:01:16.144Z,0.00
2017-04-25T03:02:10.351Z,0.00
2017-04-25T03:03:11.076Z,0.00
2017-04-25T03:04:04.610Z,0.00
2017-04-25T03:05:04.566Z,0.00
2017-04-25T03:06:04.465Z,0.00
2017-04-25T03:07:04.595Z,0.00
2017-04-25T03:08:10.349Z,0.00
2017-04-25T03:09:04.343Z,0.00
2017-04-25T03:09:58.252Z,0.00
2017-04-25T03:10:53.229Z,0.00
2017-04-25T03:11:53.731Z,0.00
2017-04-25T03:12:47.906Z,0.00
2017-04-25T03:13:42.199Z,0.00
2017-04-25T03:14:41.735Z,0.00
2017-04-25T03:15:35.662Z,0.00
2017-04-25T03:16:35.600Z,0.00
2017-04-25T03:17:31.112Z,0.00
2017-04-25T03:18:30.037Z,0.00
2017-04-25T03:19:30.080Z,0.00
2017-04-25T03:20:24.971Z,0.00
2017-04-25T03:21:24.446Z,0.00
2017-04-25T03:22:19.378Z,0.00
2017-04-25T03:23:13.928Z,0.00
2017-04-25T03:24:02.444Z,0.00
2017-04-25T03:24:55.953Z,0.00
2017-04-25T03:25:55.881Z,0.00
2017-04-25T03:26:49.857Z,0.00
2017-04-25T03:27:49.832Z,0.00
2017-04-25T03:28:43.749Z,0.00
2017-04-25T03:29:43.722Z,0.00
2017-04-25T03:30:31.630Z,0.00
2017-04-25T03:31:20.660Z,0.00
2017-04-25T03:32:14.494Z,0.00
2017-04-25T03:33:08.129Z,0.00
2017-04-25T03:34:02.039Z,0.00
2017-04-25T03:35:02.027Z,0.00
2017-04-25T03:35:56.933Z,0.00
2017-04-25T03:36:51.474Z,0.00
2017-04-25T03:37:45.960Z,0.00
2017-04-25T03:38:45.446Z,0.00
2017-04-25T03:39:39.407Z,0.00
2017-04-25T03:40:33.533Z,0.00
2017-04-25T03:41:22.325Z,0.00
2017-04-25T03:42:16.864Z,0.00
2017-04-25T03:43:05.370Z,0.00
2017-04-25T03:43:53.932Z,0.00
2017-04-25T03:44:47.417Z,0.00
2017-04-25T03:45:41.364Z,0.00
2017-04-25T03:46:41.351Z,0.00
2017-04-25T03:47:35.258Z,0.00
2017-04-25T03:48:30.254Z,0.00
2017-04-25T03:49:18.758Z,0.00
2017-04-25T03:50:07.236Z,0.00
2017-04-25T03:51:01.746Z,0.00
2017-04-25T03:52:01.260Z,0.00
2017-04-25T03:53:01.237Z,0.00
2017-04-25T03:53:49.174Z,0.00
2017-04-25T03:54:38.120Z,0.00
2017-04-25T03:55:26.626Z,0.00
2017-04-25T03:56:26.194Z,0.00
2017-04-25T03:57:20.706Z,0.00
2017-04-25T03:58:14.040Z,0.00
2017-04-25T03:59:03.012Z,0.00
2017-04-25T03:59:51.498Z,0.00
2017-04-25T04:00:39.044Z,0.00
2017-04-25T04:01:38.998Z,0.00
2017-04-25T04:02:39.003Z,0.00
2017-04-25T04:03:32.927Z,0.00
2017-04-25T04:04:32.832Z,0.00
2017-04-25T04:05:21.807Z,0.00
2017-04-25T04:06:16.314Z,0.00
2017-04-25T04:07:10.900Z,0.00
2017-04-25T04:08:10.336Z,0.00
2017-04-25T04:08:59.351Z,0.00
2017-04-25T04:09:52.840Z,0.00
2017-04-25T04:10:40.775Z,0.00
2017-04-25T04:11:40.741Z,0.00
2017-04-25T04:12:29.808Z,0.00
2017-04-25T04:13:24.229Z,0.00
2017-04-25T04:14:23.698Z,0.00
2017-04-25T04:15:17.650Z,0.00
2017-04-25T04:16:06.598Z,0.00
2017-04-25T04:17:01.143Z,0.00
2017-04-25T04:17:54.694Z,0.00
2017-04-25T04:18:48.614Z,0.00
2017-04-25T04:19:42.552Z,0.00
2017-04-25T04:20:37.459Z,0.00
2017-04-25T04:21:30.987Z,0.00
2017-04-25T04:22:24.936Z,0.00
2017-04-25T04:23:18.953Z,0.00
2017-04-25T04:24:12.841Z,0.00
2017-04-25T04:25:01.787Z,0.00
2017-04-25T04:25:56.322Z,0.00
2017-04-25T04:26:55.785Z,0.00
2017-04-25T04:27:49.798Z,0.01
2017-04-25T04:28:44.799Z,0.01
2017-04-25T04:29:32.274Z,0.01
2017-04-25T04:30:32.227Z,0.01
2017-04-25T04:31:21.153Z,0.01
2017-04-25T04:32:15.631Z,0.01
2017-04-25T04:33:10.211Z,0.01
2017-04-25T04:34:09.726Z,0.01
2017-04-25T04:34:58.623Z,0.01
2017-04-25T04:35:52.194Z,0.01
2017-04-25T04:36:46.241Z,0.01
2017-04-25T04:37:40.112Z,0.01
2017-04-25T04:38:29.065Z,0.01
2017-04-25T04:39:23.522Z,0.01
2017-04-25T04:40:18.049Z,0.01
2017-04-25T04:41:06.552Z,0.01
2017-04-25T04:42:06.127Z,0.01
2017-04-25T04:43:00.060Z,0.02
2017-04-25T04:43:49.078Z,0.02
2017-04-25T04:44:42.548Z,0.02
2017-04-25T04:45:25.434Z,0.02
2017-04-25T04:46:18.969Z,0.02
2017-04-25T04:47:18.943Z,0.02
2017-04-25T04:48:13.936Z,0.02
2017-04-25T04:49:07.434Z,0.02
2017-04-25T04:50:02.358Z,0.02
2017-04-25T04:50:55.881Z,0.02
2017-04-25T04:51:44.867Z,0.02
2017-04-25T04:52:38.368Z,0.02
2017-04-25T04:53:32.318Z,0.02
2017-04-25T04:54:21.274Z,0.02
2017-04-25T04:55:09.806Z,0.02
2017-04-25T04:55:58.325Z,0.02
2017-04-25T04:56:52.777Z,0.03
2017-04-25T04:57:40.330Z,0.03
2017-04-25T04:58:35.332Z,0.03
2017-04-25T04:59:34.809Z,0.03
2017-04-25T05:00:28.869Z,0.03
2017-04-25T05:01:28.707Z,0.04
2017-04-25T05:02:23.267Z,0.04
2017-04-25T05:03:16.636Z,0.04
2017-04-25T05:04:10.572Z,0.03
2017-04-25T05:05:04.506Z,0.03
2017-04-25T05:05:52.490Z,0.04
2017-04-25T05:06:46.446Z,0.04
2017-04-25T05:07:40.334Z,0.03
2017-04-25T05:08:29.380Z,0.02
2017-04-25T05:09:23.869Z,0.03
2017-04-25T05:10:18.362Z,0.04
2017-04-25T05:11:11.890Z,0.05
2017-04-25T05:12:05.792Z,0.05
2017-04-25T05:12:54.788Z,0.06
2017-04-25T05:13:48.378Z,0.06
2017-04-25T05:14:43.201Z,0.06
2017-04-25T05:15:30.732Z,0.06
2017-04-25T05:16:24.830Z,0.06
2017-04-25T05:17:13.679Z,0.06
2017-04-25T05:18:07.304Z,0.06
2017-04-25T05:18:55.167Z,0.07
2017-04-25T05:19:49.149Z,0.07
2017-04-25T05:20:43.058Z,0.07
2017-04-25T05:21:37.051Z,0.07
2017-04-25T05:22:26.018Z,0.06
2017-04-25T05:23:25.534Z,0.06
2017-04-25T05:24:13.464Z,0.06
2017-04-25T05:25:01.407Z,0.05
2017-04-25T05:25:50.364Z,0.05
2017-04-25T05:26:44.898Z,0.05
2017-04-25T05:27:38.434Z,0.05
2017-04-25T05:28:32.348Z,0.06
2017-04-25T05:29:26.319Z,0.05
2017-04-25T05:30:14.259Z,0.06
2017-04-25T05:30:57.240Z,0.06
2017-04-25T05:31:44.965Z,0.06
2017-04-25T05:32:33.752Z,0.06
2017-04-25T05:33:22.277Z,0.06
2017-04-25T05:34:10.746Z,0.07
2017-04-25T05:34:59.262Z,0.07
2017-04-25T05:35:52.820Z,0.07
2017-04-25T05:36:41.755Z,0.07
2017-04-25T05:37:35.221Z,0.07
2017-04-25T05:38:24.534Z,0.08
2017-04-25T05:39:11.767Z,0.09
2017-04-25T05:40:00.673Z,0.09
2017-04-25T05:40:54.192Z,0.09
2017-04-25T05:41:48.401Z,0.10
2017-04-25T05:42:36.242Z,0.10
2017-04-25T05:43:30.446Z,0.10
2017-04-25T05:44:18.043Z,0.11
2017-04-25T05:45:07.002Z,0.13
2017-04-25T05:45:55.515Z,0.13
2017-04-25T05:46:44.025Z,0.16
2017-04-25T05:47:32.614Z,0.17
2017-04-25T05:48:20.097Z,0.18
2017-04-25T05:49:14.371Z,0.17
2017-04-25T05:50:02.961Z,0.17
2017-04-25T05:50:56.541Z,0.18
2017-04-25T05:51:45.467Z,0.14
2017-04-25T05:52:33.007Z,0.16
2017-04-25T05:53:26.945Z,0.13
2017-04-25T05:54:21.226Z,0.18
2017-04-25T05:55:03.812Z,0.18
2017-04-25T05:55:52.379Z,0.16
2017-04-25T05:56:45.904Z,0.17
2017-04-25T05:57:39.866Z,0.21
2017-04-25T05:58:34.853Z,0.18
2017-04-25T05:59:29.602Z,0.24
2017-04-25T06:00:22.934Z,0.22
2017-04-25T06:01:10.974Z,0.19
2017-04-25T06:01:59.784Z,0.20
2017-04-25T06:02:48.379Z,0.18
2017-04-25T06:03:41.818Z,0.17
2017-04-25T06:04:30.137Z,0.16
2017-04-25T06:05:18.729Z,0.14
2017-04-25T06:06:12.294Z,0.14
2017-04-25T06:07:01.225Z,0.14
2017-04-25T06:08:00.899Z,0.14
2017-04-25T06:08:43.710Z,0.15
2017-04-25T06:09:31.241Z,0.16
2017-04-25T06:10:19.185Z,0.16
2017-04-25T06:11:08.146Z,0.17
2017-04-25T06:12:01.690Z,0.18
2017-04-25T06:12:50.253Z,0.19
2017-04-25T06:13:32.615Z,0.19
2017-04-25T06:14:26.156Z,0.22
2017-04-25T06:15:20.043Z,0.28
2017-04-25T06:16:03.086Z,0.21
2017-04-25T06:17:02.550Z,0.19
2017-04-25T06:17:51.531Z,0.18
2017-04-25T06:18:39.039Z,0.17
2017-04-25T06:19:34.022Z,0.16
2017-04-25T06:20:27.579Z,0.17
2017-04-25T06:21:21.474Z,0.17
2017-04-25T06:22:10.412Z,0.17
2017-04-25T06:22:58.973Z,0.18
2017-04-25T06:23:52.437Z,0.18
2017-04-25T06:24:47.409Z,0.17
2017-04-25T06:25:35.919Z,0.17
2017-04-25T06:26:23.466Z,0.17
2017-04-25T06:27:18.384Z,0.18
2017-04-25T06:28:12.924Z,0.19
2017-04-25T06:29:06.458Z,0.18
2017-04-25T06:30:00.382Z,0.16
2017-04-25T06:30:54.330Z,0.16
2017-04-25T06:31:43.331Z,0.16
2017-04-25T06:32:31.816Z,0.16
2017-04-25T06:33:25.381Z,0.16
2017-04-25T06:34:26.383Z,0.17
2017-04-25T06:35:25.817Z,0.18
2017-04-25T06:36:25.827Z,0.17
2017-04-25T06:37:19.680Z,0.16
2017-04-25T06:38:07.732Z,0.14
2017-04-25T06:38:56.662Z,0.14
2017-04-25T06:39:50.217Z,0.16
2017-04-25T06:40:44.138Z,0.17
2017-04-25T06:41:32.110Z,0.20
2017-04-25T06:42:32.034Z,0.31
2017-04-25T06:43:20.044Z,0.25
2017-04-25T06:44:07.942Z,0.32
2017-04-25T06:44:55.952Z,0.32
2017-04-25T06:45:44.910Z,0.25
2017-04-25T06:46:32.474Z,0.19
2017-04-25T06:47:21.504Z,0.28
2017-04-25T06:48:09.936Z,0.24
2017-04-25T06:49:04.427Z,0.27
2017-04-25T06:49:57.933Z,0.18
2017-04-25T06:50:45.941Z,0.18
2017-04-25T06:51:35.754Z,0.18
2017-04-25T06:52:29.392Z,0.25
2017-04-25T06:53:23.893Z,0.25
2017-04-25T06:54:12.460Z,0.25
2017-04-25T06:54:59.964Z,0.25
2017-04-25T06:55:53.960Z,0.23
2017-04-25T06:56:41.855Z,0.23
2017-04-25T06:57:35.840Z,0.22
2017-04-25T06:58:23.825Z,0.21
2017-04-25T06:59:17.750Z,0.20
2017-04-25T07:00:06.679Z,0.15
2017-04-25T07:00:55.218Z,0.15
2017-04-25T07:01:44.104Z,0.35
2017-04-25T07:02:32.335Z,0.39
2017-04-25T07:03:25.823Z,0.43
2017-04-25T07:04:13.807Z,0.44
2017-04-25T07:05:02.698Z,0.45
2017-04-25T07:05:56.240Z,0.45
2017-04-25T07:06:56.498Z,0.43
2017-04-25T07:07:50.153Z,0.44
2017-04-25T07:08:45.167Z,0.41
2017-04-25T07:09:38.622Z,0.25
2017-04-25T07:10:26.619Z,0.16
2017-04-25T07:11:20.591Z,0.20
2017-04-25T07:12:14.828Z,0.22
2017-04-25T07:13:08.565Z,0.53
2017-04-25T07:13:57.452Z,0.22
2017-04-25T07:14:52.009Z,0.43
2017-04-25T07:15:40.540Z,0.49
2017-04-25T07:16:29.046Z,0.54
2017-04-25T07:17:24.308Z,0.31
2017-04-25T07:18:12.140Z,0.56
2017-04-25T07:18:59.674Z,0.18
2017-04-25T07:19:59.551Z,0.17
2017-04-25T07:20:54.574Z,0.50
2017-04-25T07:21:49.032Z,0.56
2017-04-25T07:22:43.805Z,0.61
2017-04-25T07:23:32.134Z,0.29
2017-04-25T07:24:19.681Z,0.27
2017-04-25T07:25:13.602Z,0.25
2017-04-25T07:26:07.559Z,0.25
2017-04-25T07:27:01.476Z,0.65
2017-04-25T07:27:50.510Z,0.35
2017-04-25T07:28:39.019Z,0.39
2017-04-25T07:29:38.563Z,0.53
2017-04-25T07:30:21.537Z,0.28
2017-04-25T07:31:16.066Z,0.26
2017-04-25T07:32:04.548Z,0.25
2017-04-25T07:32:52.613Z,0.19
2017-04-25T07:33:53.051Z,0.17
2017-04-25T07:34:47.517Z,0.18
2017-04-25T07:35:41.107Z,0.20
2017-04-25T07:36:41.074Z,0.65
2017-04-25T07:37:30.042Z,0.68
2017-04-25T07:38:23.756Z,0.69
2017-04-25T07:39:17.460Z,0.66
2017-04-25T07:40:11.473Z,0.25
2017-04-25T07:41:05.401Z,0.17
2017-04-25T07:41:55.048Z,0.47
2017-04-25T07:42:47.881Z,0.20
2017-04-25T07:43:31.207Z,0.60
2017-04-25T07:44:24.441Z,0.61
2017-04-25T07:45:07.401Z,0.61
2017-04-25T07:46:01.900Z,0.58
2017-04-25T07:46:50.444Z,0.17
2017-04-25T07:47:44.965Z,0.61
2017-04-25T07:48:33.866Z,0.18
2017-04-25T07:49:22.003Z,0.19
2017-04-25T07:50:21.564Z,0.16
2017-04-25T07:51:09.503Z,0.17
2017-04-25T07:52:03.448Z,0.17
2017-04-25T07:52:52.903Z,0.17
2017-04-25T07:53:46.474Z,0.30
2017-04-25T07:54:39.900Z,0.18
2017-04-25T07:55:28.897Z,0.66
2017-04-25T07:56:22.502Z,0.65
2017-04-25T07:57:11.324Z,0.65
2017-04-25T07:57:59.862Z,0.67
2017-04-25T07:58:48.771Z,0.66
2017-04-25T07:59:35.947Z,0.67
2017-04-25T08:00:24.907Z,0.68
2017-04-25T08:01:19.436Z,0.72
2017-04-25T08:02:12.984Z,0.74
2017-04-25T08:03:01.928Z,0.73
2017-04-25T08:03:50.452Z,0.73
2017-04-25T08:04:44.053Z,0.74
2017-04-25T08:05:44.940Z,0.74
2017-04-25T08:06:38.483Z,0.75
2017-04-25T08:07:33.447Z,0.77
2017-04-25T08:08:28.076Z,0.79
2017-04-25T08:09:16.539Z,0.76
2017-04-25T08:10:05.034Z,0.48
2017-04-25T08:10:53.589Z,0.20
2017-04-25T08:11:53.701Z,0.21
2017-04-25T08:12:47.336Z,0.25
2017-04-25T08:13:41.001Z,0.26
2017-04-25T08:14:35.232Z,0.61
2017-04-25T08:15:28.953Z,0.27
2017-04-25T08:16:17.946Z,0.24
2017-04-25T08:17:12.430Z,0.31
2017-04-25T08:18:00.901Z,0.29
2017-04-25T08:18:49.505Z,0.45
2017-04-25T08:19:44.327Z,0.20
2017-04-25T08:20:37.601Z,0.22
2017-04-25T08:21:31.487Z,0.26
2017-04-25T08:22:32.465Z,0.30
2017-04-25T08:23:20.014Z,0.50
2017-04-25T08:24:13.967Z,0.34
2017-04-25T08:25:03.446Z,0.27
2017-04-25T08:25:57.470Z,0.25
2017-04-25T08:26:46.021Z,0.25
2017-04-25T08:27:39.531Z,0.25
2017-04-25T08:28:28.526Z,0.26
2017-04-25T08:29:28.000Z,0.22
2017-04-25T08:30:22.295Z,0.20
2017-04-25T08:31:15.950Z,0.19
2017-04-25T08:32:09.909Z,0.18
2017-04-25T08:32:58.862Z,0.18
2017-04-25T08:33:53.409Z,0.19
2017-04-25T08:34:41.956Z,0.20
2017-04-25T08:35:41.466Z,0.85
2017-04-25T08:36:36.417Z,0.89
2017-04-25T08:37:29.926Z,0.39
2017-04-25T08:38:18.903Z,0.96
2017-04-25T08:39:12.449Z,0.70
2017-04-25T08:40:06.407Z,0.50
2017-04-25T08:40:55.521Z,0.25
2017-04-25T08:41:48.921Z,0.21
2017-04-25T08:42:43.831Z,0.20
2017-04-25T08:43:37.369Z,0.19
2017-04-25T08:44:25.339Z,0.21
2017-04-25T08:45:13.322Z,0.26
2017-04-25T08:46:13.278Z,0.33
2017-04-25T08:47:02.263Z,0.42
2017-04-25T08:47:55.851Z,0.49
2017-04-25T08:48:44.757Z,0.44
2017-04-25T08:49:39.256Z,0.93
2017-04-25T08:50:33.780Z,0.47
2017-04-25T08:51:28.653Z,0.38
2017-04-25T08:52:22.849Z,0.33
2017-04-25T08:53:16.338Z,0.30
2017-04-25T08:54:11.374Z,0.88
2017-04-25T08:55:04.857Z,0.32
2017-04-25T08:55:53.863Z,0.35
2017-04-25T08:56:48.417Z,0.39
2017-04-25T08:57:36.878Z,0.83
2017-04-25T08:58:30.394Z,0.93
2017-04-25T08:59:24.361Z,0.51
2017-04-25T09:00:12.344Z,0.37
2017-04-25T09:01:01.312Z,0.34
2017-04-25T09:01:55.440Z,0.34
2017-04-25T09:02:49.819Z,0.34
2017-04-25T09:03:38.389Z,0.33
2017-04-25T09:04:31.855Z,0.33
2017-04-25T09:05:26.888Z,0.26
2017-04-25T09:06:14.347Z,0.25
2017-04-25T09:07:08.345Z,0.27
2017-04-25T09:07:56.327Z,0.26
2017-04-25T09:08:57.271Z,0.22
2017-04-25T09:09:44.808Z,0.21
2017-04-25T09:10:32.748Z,0.23
2017-04-25T09:11:21.710Z,0.38
2017-04-25T09:12:10.376Z,0.27
2017-04-25T09:13:03.797Z,0.71
2017-04-25T09:13:52.717Z,0.93
2017-04-25T09:14:46.287Z,1.00
2017-04-25T09:15:35.231Z,1.04
2017-04-25T09:16:28.821Z,0.43
2017-04-25T09:17:23.019Z,0.41
2017-04-25T09:18:11.744Z,0.97
2017-04-25T09:19:05.296Z,0.32
2017-04-25T09:19:53.246Z,0.32
2017-04-25T09:20:48.149Z,0.62
2017-04-25T09:21:41.707Z,0.56
2017-04-25T09:22:30.615Z,1.02
2017-04-25T09:23:18.616Z,1.03
2017-04-25T09:24:12.136Z,0.51
2017-04-25T09:25:12.132Z,0.38
2017-04-25T09:26:07.020Z,0.38
2017-04-25T09:27:00.551Z,0.56
2017-04-25T09:27:54.926Z,0.45
2017-04-25T09:28:49.535Z,0.42
2017-04-25T09:29:38.038Z,0.43
2017-04-25T09:30:25.607Z,1.13
2017-04-25T09:31:31.535Z,0.42
2017-04-25T09:32:25.503Z,0.39
2017-04-25T09:33:19.492Z,0.57
2017-04-25T09:34:07.472Z,0.45
2017-04-25T09:34:56.406Z,0.37
2017-04-25T09:35:50.957Z,0.33
2017-04-25T09:36:39.502Z,0.31
2017-04-25T09:37:38.991Z,0.77
2017-04-25T09:38:33.340Z,0.34
2017-04-25T09:39:26.998Z,0.31
2017-04-25T09:40:20.915Z,0.33
2017-04-25T09:41:14.893Z,0.36
2017-04-25T09:42:02.818Z,0.40
2017-04-25T09:42:56.850Z,0.42
2017-04-25T09:43:45.813Z,1.03
2017-04-25T09:44:45.321Z,0.40
2017-04-25T09:45:33.287Z,0.43
2017-04-25T09:46:28.231Z,0.47
2017-04-25T09:47:21.794Z,0.56
2017-04-25T09:48:04.896Z,0.40
2017-04-25T09:48:53.860Z,0.36
2017-04-25T09:49:41.788Z,0.31
2017-04-25T09:50:29.338Z,0.28
2017-04-25T09:51:24.354Z,0.26
2017-04-25T09:52:12.847Z,0.27
2017-04-25T09:53:06.392Z,0.29
2017-04-25T09:53:55.712Z,0.29
2017-04-25T09:54:48.888Z,0.27
2017-04-25T09:55:42.799Z,0.26
2017-04-25T09:56:25.828Z,0.29
2017-04-25T09:57:14.309Z,0.46
2017-04-25T09:58:08.889Z,1.10
2017-04-25T09:59:03.412Z,0.52
2017-04-25T09:59:56.955Z,1.17
2017-04-25T10:00:50.953Z,0.50
2017-04-25T10:01:39.822Z,0.47
2017-04-25T10:02:33.405Z,1.19
2017-04-25T10:03:34.342Z,0.86
2017-04-25T10:04:33.812Z,0.33
2017-04-25T10:05:21.831Z,0.26
2017-04-25T10:06:09.781Z,0.22
2017-04-25T10:07:03.828Z,0.20
2017-04-25T10:07:51.723Z,0.22
2017-04-25T10:08:53.340Z,0.29
2017-04-25T10:09:41.260Z,0.40
2017-04-25T10:10:34.749Z,0.30
2017-04-25T10:11:23.693Z,0.31
2017-04-25T10:12:17.205Z,0.30
2017-04-25T10:13:11.245Z,0.28
2017-04-25T10:14:00.201Z,0.29
2017-04-25T10:14:53.807Z,0.32
2017-04-25T10:15:42.705Z,0.34
2017-04-25T10:16:31.222Z,0.58
2017-04-25T10:17:19.705Z,0.40
2017-04-25T10:18:14.340Z,0.56
2017-04-25T10:19:07.794Z,0.26
2017-04-25T10:20:01.804Z,0.24
2017-04-25T10:20:55.842Z,0.21
2017-04-25T10:21:44.749Z,0.17
2017-04-25T10:22:33.258Z,0.14
2017-04-25T10:23:26.782Z,0.11
2017-04-25T10:24:20.734Z,0.09
2017-04-25T10:25:15.039Z,0.08
2017-04-25T10:26:03.668Z,0.09
2017-04-25T10:27:03.188Z,0.11
2017-04-25T10:27:52.149Z,0.12
2017-04-25T10:28:53.266Z,0.18
2017-04-25T10:29:46.243Z,0.22
2017-04-25T10:30:41.479Z,0.29
2017-04-25T10:31:34.688Z,0.38
2017-04-25T10:32:30.281Z,0.47
2017-04-25T10:33:23.167Z,0.43
2017-04-25T10:34:11.183Z,0.44
2017-04-25T10:35:06.114Z,0.47
2017-04-25T10:35:54.663Z,0.67
2017-04-25T10:36:43.160Z,0.42
2017-04-25T10:37:36.705Z,0.45
2017-04-25T10:38:19.655Z,0.39
2017-04-25T10:39:13.151Z,0.38
2017-04-25T10:40:01.123Z,0.37
2017-04-25T10:40:50.126Z,0.39
2017-04-25T10:41:44.660Z,0.61
2017-04-25T10:42:33.193Z,0.82
2017-04-25T10:43:26.658Z,0.72
2017-04-25T10:44:20.638Z,0.76
2017-04-25T10:45:08.648Z,1.08
2017-04-25T10:45:56.561Z,0.68
2017-04-25T10:46:46.030Z,0.50
2017-04-25T10:47:39.085Z,0.73
2017-04-25T10:48:33.054Z,0.74
2017-04-25T10:49:16.012Z,0.71
2017-04-25T10:50:09.508Z,0.88
2017-04-25T10:51:04.455Z,0.92
2017-04-25T10:51:53.320Z,0.72
2017-04-25T10:52:40.533Z,0.58
2017-04-25T10:53:34.529Z,0.97
2017-04-25T10:54:29.461Z,0.91
2017-04-25T10:55:23.039Z,0.93
2017-04-25T10:56:16.956Z,0.91
2017-04-25T10:57:05.888Z,0.88
2017-04-25T10:57:54.448Z,0.94
2017-04-25T10:58:47.993Z,0.94
2017-04-25T10:59:41.956Z,0.92
2017-04-25T11:00:31.343Z,0.43
2017-04-25T11:01:24.450Z,0.91
2017-04-25T11:02:13.983Z,0.91
2017-04-25T11:03:07.926Z,0.92
2017-04-25T11:04:01.483Z,0.93
2017-04-25T11:04:49.411Z,0.95
2017-04-25T11:05:43.445Z,0.97
2017-04-25T11:06:38.409Z,1.01
2017-04-25T11:07:32.493Z,1.03
2017-04-25T11:08:26.127Z,0.34
2017-04-25T11:09:14.168Z,0.40
2017-04-25T11:10:08.807Z,1.18
2017-04-25T11:11:02.929Z,1.18
2017-04-25T11:11:45.879Z,0.43
2017-04-25T11:12:34.244Z,0.36
2017-04-25T11:13:28.454Z,0.19
2017-04-25T11:14:22.177Z,0.11
2017-04-25T11:15:15.885Z,0.08
2017-04-25T11:16:03.950Z,0.06
2017-04-25T11:16:59.458Z,0.04
2017-04-25T11:17:52.903Z,0.03
2017-04-25T11:18:40.386Z,0.04
2017-04-25T11:19:29.346Z,0.04
2017-04-25T11:20:17.880Z,0.05
2017-04-25T11:21:12.384Z,0.05
2017-04-25T11:22:05.878Z,0.06
2017-04-25T11:23:00.232Z,0.06
2017-04-25T11:23:48.894Z,0.05
2017-04-25T11:24:37.478Z,0.04
2017-04-25T11:25:26.109Z,0.05
2017-04-25T11:26:13.413Z,0.05
2017-04-25T11:27:01.958Z,0.05
2017-04-25T11:27:49.396Z,0.05
2017-04-25T11:28:38.713Z,0.05
2017-04-25T11:29:31.900Z,0.06
2017-04-25T11:30:20.806Z,0.06
2017-04-25T11:31:14.341Z,0.11
2017-04-25T11:32:08.344Z,0.14
2017-04-25T11:32:57.301Z,0.17
2017-04-25T11:33:45.935Z,0.20
2017-04-25T11:34:40.301Z,0.23
2017-04-25T11:35:33.855Z,0.26
2017-04-25T11:36:27.797Z,0.29
2017-04-25T11:37:22.745Z,0.31